Time;durP1;ratioP1;P1;durP2;ratioP2;P2;SDS_P1;SDS_P2;PMS_P1;PMS_P2;Temp;Humidity;BMP_temperature;BMP_pressure;BME280_temperature;BME280_humidity;BME280_pressure;Samples;Min_cycle;Max_cycle;Signal;HPM_P1;HPM_P2
2024/03/08 00:00:34;;;;;;;33.05;18.17;;;;;;;5.04;83.48;100570.41;4980277;28;20062;-72
2024/03/08 00:03:02;;;;;;;28.10;18.58;;;;;;;5.03;83.31;100576.59;4977283;28;20047;-73
2024/03/08 00:05:31;;;;;;;28.95;18.40;;;;;;;5.01;84.12;100568.75;4934431;28;20047;-72
2024/03/08 00:08:01;;;;;;;26.60;17.65;;;;;;;4.99;83.88;100567.03;4962460;28;20043;-71
2024/03/08 00:10:30;;;;;;;26.45;17.05;;;;;;;4.97;83.96;100568.84;4956940;28;20051;-74
2024/03/08 00:12:58;;;;;;;30.45;17.05;;;;;;;4.94;84.56;100556.63;4941803;28;21022;-73
2024/03/08 00:15:29;;;;;;;29.65;18.20;;;;;;;4.86;84.80;100562.06;4961405;28;20509;-74
2024/03/08 00:18:00;;;;;;;27.58;17.83;;;;;;;4.87;85.57;100569.03;4962849;28;20071;-72
2024/03/08 00:20:28;;;;;;;29.73;17.58;;;;;;;4.80;86.71;100566.56;4958995;28;20158;-71
2024/03/08 00:22:57;;;;;;;27.70;17.02;;;;;;;4.74;87.40;100556.19;4976253;28;20069;-73
2024/03/08 00:25:27;;;;;;;27.02;17.90;;;;;;;4.69;88.51;100558.91;4974725;28;20055;-73
2024/03/08 00:27:55;;;;;;;28.88;17.75;;;;;;;4.59;88.82;100552.97;4959705;28;20101;-72
2024/03/08 00:30:25;;;;;;;30.30;17.17;;;;;;;4.60;89.91;100564.34;4998466;28;20046;-72
2024/03/08 00:32:53;;;;;;;31.50;18.08;;;;;;;4.50;91.08;100547.94;4950096;28;20071;-73
2024/03/08 00:35:23;;;;;;;28.30;17.00;;;;;;;4.54;90.57;100557.47;4947929;28;20039;-73
2024/03/08 00:37:56;;;;;;;32.30;18.27;;;;;;;4.51;91.63;100552.28;4958717;28;20043;-70
2024/03/08 00:40:24;;;;;;;28.23;17.45;;;;;;;4.48;92.32;100552.34;4944538;28;20419;-74
2024/03/08 00:42:53;;;;;;;28.13;17.35;;;;;;;4.46;92.25;100545.38;4959970;28;20214;-71
2024/03/08 00:45:22;;;;;;;28.33;17.55;;;;;;;4.44;92.75;100547.16;4967566;28;20535;-73
2024/03/08 00:47:51;;;;;;;29.15;17.77;;;;;;;4.38;93.44;100553.41;4945901;28;20046;-71
2024/03/08 00:50:20;;;;;;;;;;;;;;;4.32;94.17;100540.41;4946447;28;20047;-71
2024/03/08 00:52:53;;;;;;;29.63;17.42;;;;;;;4.30;95.07;100543.97;4944402;28;19930;-71
2024/03/08 00:55:21;;;;;;;32.58;18.73;;;;;;;4.21;95.96;100537.13;4947094;28;20098;-73
2024/03/08 00:57:50;;;;;;;28.63;18.05;;;;;;;4.14;96.84;100533.75;4950283;28;20048;-72
2024/03/08 01:00:20;;;;;;;29.27;18.30;;;;;;;4.14;97.64;100530.28;4956299;28;20123;-72
2024/03/08 01:02:48;;;;;;;30.38;17.90;;;;;;;4.09;99.30;100529.50;4944030;28;20043;-71
2024/03/08 01:05:17;;;;;;;30.40;18.33;;;;;;;4.00;99.84;100514.81;4952730;28;20594;-72
2024/03/08 01:07:46;;;;;;;29.52;18.25;;;;;;;4.04;100.00;100520.88;4968976;28;20051;-73
2024/03/08 01:10:16;;;;;;;29.02;17.58;;;;;;;4.02;100.00;100518.28;4969734;28;20059;-73
2024/03/08 01:12:44;;;;;;;31.73;18.20;;;;;;;3.93;100.00;100509.72;4965652;28;20043;-73
2024/03/08 01:15:13;;;;;;;27.00;17.92;;;;;;;3.92;100.00;100511.47;4985972;28;20067;-73
2024/03/08 01:17:41;;;;;;;30.58;18.55;;;;;;;3.86;100.00;100507.19;4986268;28;20054;-73
2024/03/08 01:20:10;;;;;;;31.70;18.25;;;;;;;3.89;100.00;100506.28;4960714;28;20051;-72
2024/03/08 01:22:39;;;;;;;32.45;18.05;;;;;;;3.83;100.00;100496.78;4956013;28;20047;-72
2024/03/08 01:25:09;;;;;;;26.90;17.70;;;;;;;3.80;100.00;100495.97;4954758;28;20043;-72
2024/03/08 01:27:39;;;;;;;;;;;;;;;3.73;100.00;100489.97;4960303;28;20248;-72
2024/03/08 01:30:11;;;;;;;33.22;18.48;;;;;;;3.67;100.00;100486.59;4949440;28;19927;-72
2024/03/08 01:32:39;;;;;;;31.98;17.83;;;;;;;3.67;100.00;100476.97;4962130;28;20055;-72
2024/03/08 01:35:09;;;;;;;29.60;18.08;;;;;;;3.64;100.00;100479.66;4974307;28;20063;-71
2024/03/08 01:37:37;;;;;;;33.53;18.35;;;;;;;3.63;100.00;100483.16;4980325;28;20047;-72
2024/03/08 01:40:07;;;;;;;31.35;17.67;;;;;;;3.59;100.00;100481.50;4995185;28;20045;-72
2024/03/08 01:42:37;;;;;;;31.48;18.42;;;;;;;3.52;100.00;100472.00;4981115;28;20043;-72
2024/03/08 01:45:08;;;;;;;31.80;18.63;;;;;;;3.54;100.00;100467.63;5002389;28;20131;-74
2024/03/08 01:47:38;;;;;;;30.08;18.27;;;;;;;3.55;100.00;100471.97;4966256;28;20060;-72
2024/03/08 01:50:08;;;;;;;32.33;18.13;;;;;;;3.52;100.00;100470.25;4987054;28;20111;-72
2024/03/08 01:52:36;;;;;;;32.33;18.95;;;;;;;3.45;100.00;100467.78;4984599;28;20395;-72
2024/03/08 01:55:07;;;;;;;28.83;17.60;;;;;;;3.46;100.00;100464.28;4969663;28;20051;-72
2024/03/08 01:57:37;;;;;;;31.27;18.83;;;;;;;3.45;100.00;100475.63;4958086;28;20060;-71
2024/03/08 02:00:11;;;;;;;31.38;18.10;;;;;;;3.29;100.00;100441.00;4968536;28;20058;-73
2024/03/08 02:02:44;;;;;;;28.40;17.38;;;;;;;3.39;100.00;100466.13;4969425;28;20046;-73
2024/03/08 02:05:13;;;;;;;30.80;17.63;;;;;;;3.40;100.00;100453.91;4977784;28;20050;-72
2024/03/08 02:07:43;;;;;;;32.75;19.10;;;;;;;3.37;100.00;100446.09;4980664;28;20477;-73
2024/03/08 02:10:12;;;;;;;29.83;18.35;;;;;;;3.34;100.00;100444.38;4971852;28;20065;-73
2024/03/08 02:12:43;;;;;;;32.90;19.27;;;;;;;3.32;100.00;100440.06;4972467;28;20404;-72
2024/03/08 02:15:12;;;;;;;35.35;19.17;;;;;;;3.25;100.00;100434.09;4966144;28;20066;-72
2024/03/08 02:17:41;;;;;;;32.85;19.90;;;;;;;3.26;100.00;100430.59;4986464;28;20043;-73
2024/03/08 02:20:13;;;;;;;32.17;19.00;;;;;;;3.24;100.00;100441.97;4986295;28;20109;-73
2024/03/08 02:22:43;;;;;;;32.97;19.60;;;;;;;3.22;100.00;100441.13;4971203;28;20067;-71
2024/03/08 02:25:12;;;;;;;32.83;19.83;;;;;;;3.21;100.00;100432.41;4987984;28;20077;-71
2024/03/08 02:27:40;;;;;;;32.03;19.48;;;;;;;3.15;100.00;100429.88;4994191;28;20043;-73
2024/03/08 02:30:12;;;;;;;31.67;19.35;;;;;;;3.15;100.00;100425.50;4984190;28;20047;-72
2024/03/08 02:32:40;;;;;;;32.28;19.38;;;;;;;3.12;100.00;100432.56;4965997;28;20050;-73
2024/03/08 02:35:09;;;;;;;31.95;19.38;;;;;;;3.09;100.00;100422.13;4980342;28;20054;-71
2024/03/08 02:37:38;;;;;;;32.78;19.88;;;;;;;3.12;100.00;100437.78;4982787;28;20043;-73
2024/03/08 02:40:12;;;;;;;33.10;19.02;;;;;;;3.12;100.00;100433.44;4989889;28;20050;-72
2024/03/08 02:42:42;;;;;;;32.20;19.27;;;;;;;3.13;100.00;100429.91;4987584;28;20441;-72
2024/03/08 02:45:10;;;;;;;37.92;20.92;;;;;;;3.09;100.00;100423.00;4981076;28;20060;-72
2024/03/08 02:47:39;;;;;;;40.47;20.08;;;;;;;3.08;100.00;100425.63;4967058;28;20125;-73
2024/03/08 02:50:08;;;;;;;35.58;19.98;;;;;;;3.04;100.00;100423.94;4971697;28;20096;-73
2024/03/08 02:52:36;;;;;;;35.05;20.50;;;;;;;3.00;100.00;100417.03;4986330;28;20065;-72
2024/03/08 02:55:06;;;;;;;31.33;19.13;;;;;;;3.01;100.00;100418.75;4968667;28;20050;-71
2024/03/08 02:57:36;;;;;;;36.22;20.65;;;;;;;2.93;100.00;100405.81;4971883;28;20130;-72
2024/03/08 03:00:09;;;;;;;34.80;19.67;;;;;;;2.98;100.00;100422.31;4981698;28;20050;-72
2024/03/08 03:02:38;;;;;;;35.70;19.98;;;;;;;2.98;100.00;100411.00;4984767;28;20407;-73
2024/03/08 03:05:07;;;;;;;34.40;20.55;;;;;;;2.94;100.00;100410.16;4960940;28;20059;-73
2024/03/08 03:07:37;;;;;;;34.28;20.83;;;;;;;2.94;100.00;100417.16;4967169;28;20043;-73
2024/03/08 03:10:06;;;;;;;34.53;20.42;;;;;;;2.89;100.00;100403.28;4986124;28;20518;-74
2024/03/08 03:12:38;;;;;;;;;;;;;;;2.90;100.00;100412.84;4968568;28;20163;-71
2024/03/08 03:15:07;;;;;;;36.78;19.85;;;;;;;2.87;100.00;100411.13;4978014;28;20009;-71
2024/03/08 03:17:39;;;;;;;41.80;20.70;;;;;;;2.83;100.00;100414.72;4969501;28;20101;-72
2024/03/08 03:20:13;;;;;;;36.28;20.30;;;;;;;2.79;100.00;100403.44;4985916;28;20079;-74
2024/03/08 03:22:44;;;;;;;35.47;20.50;;;;;;;2.78;100.00;100403.44;4970807;28;20524;-72
2024/03/08 03:25:19;;;;;;;38.55;20.85;;;;;;;2.76;100.00;100403.47;4979485;28;20065;-71
2024/03/08 03:27:49;;;;;;;34.90;20.08;;;;;;;2.71;100.00;100410.50;4981162;28;20062;-72
2024/03/08 03:30:22;;;;;;;35.60;20.48;;;;;;;2.69;100.00;100404.44;4969601;28;20141;-72
2024/03/08 03:32:50;;;;;;;36.42;21.95;;;;;;;2.63;100.00;100395.84;4982894;28;20053;-72
2024/03/08 03:35:20;;;;;;;35.30;20.15;;;;;;;2.65;100.00;100399.28;4964529;28;20054;-72
2024/03/08 03:38:01;;;;;;;37.65;20.58;;;;;;;2.62;100.00;100394.09;4979889;28;20050;-73
2024/03/08 03:40:29;;;;;;;35.05;20.20;;;;;;;2.47;100.00;100369.06;4979965;28;20560;-72
2024/03/08 03:42:58;;;;;;;35.50;19.85;;;;;;;2.58;100.00;100393.28;4952643;28;20042;-72
2024/03/08 03:45:27;;;;;;;37.45;20.75;;;;;;;2.57;100.00;100395.91;4967410;28;20046;-73
2024/03/08 03:47:54;;;;;;;36.45;20.13;;;;;;;2.59;100.00;100391.53;4981250;28;20047;-72
2024/03/08 03:50:23;;;;;;;34.67;20.48;;;;;;;2.57;100.00;100399.38;4964166;28;20074;-72
2024/03/08 03:52:51;;;;;;;36.22;19.95;;;;;;;2.53;100.00;100389.00;4984781;28;20050;-73
2024/03/08 03:55:19;;;;;;;34.65;20.30;;;;;;;2.51;100.00;100396.00;4971929;28;20494;-72
2024/03/08 03:57:48;;;;;;;37.67;20.38;;;;;;;2.49;100.00;100396.03;4977995;28;20167;-73
2024/03/08 04:00:19;;;;;;;34.65;20.88;;;;;;;2.45;100.00;100397.81;4969124;28;20430;-72
2024/03/08 04:02:47;;;;;;;37.03;21.05;;;;;;;2.47;100.00;100400.41;4966083;28;20093;-72
2024/03/08 04:05:15;;;;;;;35.95;19.95;;;;;;;2.45;100.00;100392.59;4965520;28;20058;-71
2024/03/08 04:07:44;;;;;;;38.28;21.70;;;;;;;2.38;100.00;100393.53;4965435;28;20058;-72
2024/03/08 04:10:13;;;;;;;38.88;21.77;;;;;;;2.34;100.00;100391.88;4970059;28;20061;-71
2024/03/08 04:12:41;;;;;;;34.65;20.60;;;;;;;2.33;100.00;100392.78;4951063;28;20045;-73
2024/03/08 04:15:11;;;;;;;38.70;21.42;;;;;;;2.33;100.00;100394.50;4971127;28;20043;-72
2024/03/08 04:17:41;;;;;;;34.78;21.70;;;;;;;2.25;100.00;100394.59;4983966;28;20535;-72
2024/03/08 04:20:11;;;;;;;35.53;21.30;;;;;;;2.29;100.00;100392.81;4967572;28;20516;-74
2024/03/08 04:22:39;;;;;;;37.20;21.95;;;;;;;2.27;100.00;100389.34;4984115;28;20471;-73
2024/03/08 04:25:09;;;;;;;34.47;19.83;;;;;;;2.25;100.00;100393.75;4969390;28;20050;-72
2024/03/08 04:27:37;;;;;;;37.50;22.05;;;;;;;2.24;100.00;100392.00;4988491;28;20074;-72
2024/03/08 04:30:07;;;;;;;38.17;21.63;;;;;;;2.23;100.00;100392.88;4999470;28;20050;-73
2024/03/08 04:32:36;;;;;;;;;;;;;;;2.21;100.00;100392.03;4976425;28;20066;-73
2024/03/08 04:35:08;;;;;;;37.30;21.30;;;;;;;2.19;100.00;100394.69;4988739;28;19910;-73
2024/03/08 04:37:36;;;;;;;37.38;21.02;;;;;;;2.20;100.00;100388.59;5004279;28;20041;-72
2024/03/08 04:40:06;;;;;;;36.55;21.30;;;;;;;2.23;100.00;100390.28;5008806;28;20085;-72
2024/03/08 04:42:36;;;;;;;39.08;22.45;;;;;;;2.20;100.00;100378.16;4984693;28;20057;-72
2024/03/08 04:45:05;;;;;;;37.53;21.75;;;;;;;2.16;100.00;100376.44;4986287;28;20134;-72
2024/03/08 04:47:33;;;;;;;37.50;22.30;;;;;;;2.19;100.00;100380.78;4991585;28;20558;-73
2024/03/08 04:50:01;;;;;;;37.88;21.92;;;;;;;2.18;100.00;100379.91;4973290;28;20050;-72
2024/03/08 04:52:31;;;;;;;41.67;21.58;;;;;;;2.13;100.00;100379.09;4971231;28;20053;-72
2024/03/08 04:54:59;;;;;;;40.83;22.03;;;;;;;2.13;100.00;100381.72;4976779;28;20082;-72
2024/03/08 04:57:27;;;;;;;38.45;21.92;;;;;;;2.08;100.00;100371.31;4980988;28;20047;-74
2024/03/08 04:59:56;;;;;;;40.53;22.27;;;;;;;2.07;100.00;100369.56;4980182;28;20058;-74
2024/03/08 05:02:24;;;;;;;39.80;22.15;;;;;;;2.11;100.00;100380.84;4953950;28;20050;-73
2024/03/08 05:04:52;;;;;;;36.97;22.27;;;;;;;2.09;100.00;100372.16;4977956;28;20114;-73
2024/03/08 05:07:21;;;;;;;38.05;22.98;;;;;;;2.06;100.00;100377.44;4962169;28;20088;-71
2024/03/08 05:09:52;;;;;;;38.40;22.30;;;;;;;1.98;100.00;100369.72;4947619;28;20062;-72
2024/03/08 05:12:22;;;;;;;41.10;22.10;;;;;;;1.91;100.00;100367.19;4965643;28;20082;-72
2024/03/08 05:14:51;;;;;;;38.47;22.85;;;;;;;1.91;100.00;100377.63;4973957;28;20046;-72
2024/03/08 05:17:23;;;;;;;40.72;22.83;;;;;;;1.92;100.00;100374.13;4980935;28;20482;-71
2024/03/08 05:19:53;;;;;;;;;;;;;;;1.90;100.00;100368.06;4950441;28;20051;-73
2024/03/08 05:22:22;;;;;;;36.88;21.90;;;;;;;1.85;100.00;100373.34;4961391;28;20333;-72
2024/03/08 05:24:52;;;;;;;38.97;22.30;;;;;;;1.82;100.00;100372.53;4973541;28;20468;-73
2024/03/08 05:27:22;;;;;;;41.90;22.67;;;;;;;1.69;100.00;100350.91;4967162;28;20076;-72
2024/03/08 05:29:50;;;;;;;39.53;22.33;;;;;;;1.77;100.00;100369.94;4961143;28;20158;-72
2024/03/08 05:32:19;;;;;;;40.58;23.25;;;;;;;1.73;100.00;100363.91;4965022;28;20130;-72
2024/03/08 05:34:46;;;;;;;43.17;23.25;;;;;;;1.72;100.00;100369.16;4975892;28;20058;-72
2024/03/08 05:37:15;;;;;;;36.53;21.38;;;;;;;1.67;100.00;100369.22;4968621;28;20436;-72
2024/03/08 05:39:44;;;;;;;36.58;21.95;;;;;;;1.64;100.00;100369.25;4961412;28;20093;-73
2024/03/08 05:42:14;;;;;;;38.90;22.85;;;;;;;1.62;100.00;100363.16;4983808;28;20403;-72
2024/03/08 05:44:43;;;;;;;47.87;24.10;;;;;;;1.62;100.00;100357.94;4962847;28;20063;-73
2024/03/08 05:47:11;;;;;;;39.55;22.73;;;;;;;1.61;100.00;100364.03;4947399;28;20050;-71
2024/03/08 05:49:40;;;;;;;40.92;23.02;;;;;;;1.61;100.00;100358.81;4976688;28;20127;-72
2024/03/08 05:52:10;;;;;;;;;;;;;;;1.60;100.00;100362.31;4989100;28;20042;-73
2024/03/08 05:54:37;;;;;;;39.90;22.85;;;;;;;1.57;100.00;100351.94;4978665;28;20021;-74
2024/03/08 05:57:06;;;;;;;43.35;23.95;;;;;;;1.54;100.00;100357.19;4975604;28;20047;-72
2024/03/08 05:59:36;;;;;;;42.38;23.88;;;;;;;1.42;100.00;100342.50;4973365;28;20050;-71
2024/03/08 06:02:04;;;;;;;41.22;23.70;;;;;;;1.53;100.00;100358.06;4988808;28;20042;-72
2024/03/08 06:04:32;;;;;;;43.97;24.48;;;;;;;1.50;100.00;100355.47;4987004;28;20043;-74
2024/03/08 06:07:03;;;;;;;41.92;24.50;;;;;;;1.52;100.00;100355.47;4969247;28;20066;-73
2024/03/08 06:09:31;;;;;;;44.33;24.10;;;;;;;1.51;100.00;100351.13;4984128;28;20064;-73
2024/03/08 06:12:01;;;;;;;46.92;24.63;;;;;;;1.48;100.00;100346.78;4989208;28;20047;-72
2024/03/08 06:14:30;;;;;;;47.67;25.27;;;;;;;1.52;100.00;100351.09;4973879;28;20063;-73
2024/03/08 06:17:02;;;;;;;41.78;24.20;;;;;;;1.51;100.00;100344.16;4995295;28;20073;-73
2024/03/08 06:19:33;;;;;;;41.90;23.95;;;;;;;1.56;100.00;100350.19;5001931;28;20051;-73
2024/03/08 06:22:05;;;;;;;43.08;23.98;;;;;;;1.57;100.00;100349.31;4955410;28;20051;-73
2024/03/08 06:24:36;;;;;;;42.67;23.83;;;;;;;1.56;100.00;100344.97;4973066;28;20051;-75
2024/03/08 06:27:04;;;;;;;45.65;24.60;;;;;;;1.60;100.00;100341.44;4970224;28;20051;-75
2024/03/08 06:29:33;;;;;;;40.58;23.85;;;;;;;1.59;100.00;100344.91;4968591;28;20054;-74
2024/03/08 06:32:05;;;;;;;42.42;24.65;;;;;;;1.54;100.00;100351.97;4981925;28;20058;-73
2024/03/08 06:34:34;;;;;;;47.78;24.48;;;;;;;1.58;100.00;100350.16;4982540;28;20058;-74
2024/03/08 06:37:02;;;;;;;43.97;23.10;;;;;;;1.60;100.00;100340.56;4971022;28;20070;-73
2024/03/08 06:39:31;;;;;;;44.63;24.10;;;;;;;1.62;100.00;100344.91;4972155;28;20043;-72
2024/03/08 06:42:00;;;;;;;;;;;;;;;1.67;100.00;100348.31;4956531;28;20051;-72
2024/03/08 06:44:28;;;;;;;42.60;23.60;;;;;;;1.69;100.00;100341.34;4992668;28;19953;-73
2024/03/08 06:46:58;;;;;;;44.08;23.60;;;;;;;1.77;100.00;100351.69;4981019;28;20053;-73
2024/03/08 06:49:29;;;;;;;;;;;;;;;1.84;100.00;100349.88;4989816;28;20061;-74
2024/03/08 06:51:58;;;;;;;43.47;24.20;;;;;;;1.85;100.00;100330.72;4996447;28;19929;-72
2024/03/08 06:54:26;;;;;;;44.10;25.02;;;;;;;1.89;100.00;100340.25;4979859;28;20130;-74
2024/03/08 06:56:54;;;;;;;41.25;23.20;;;;;;;1.96;100.00;100341.88;4989271;28;20045;-71
2024/03/08 06:59:22;;;;;;;43.22;24.48;;;;;;;1.99;100.00;100344.47;4985246;28;20043;-77
2024/03/08 07:01:51;;;;;;;44.58;24.42;;;;;;;2.05;100.00;100347.84;4975562;28;20166;-73
2024/03/08 07:04:20;;;;;;;44.28;24.30;;;;;;;2.11;100.00;100345.16;4967248;28;20055;-73
2024/03/08 07:06:50;;;;;;;44.92;23.67;;;;;;;2.13;100.00;100332.06;4965238;28;20047;-73
2024/03/08 07:09:21;;;;;;;37.63;23.60;;;;;;;2.28;100.00;100337.09;4986526;28;20063;-72
2024/03/08 07:11:54;;;;;;;39.25;23.30;;;;;;;2.33;100.00;100331.81;5007489;28;20046;-74
2024/03/08 07:14:22;;;;;;;43.45;24.40;;;;;;;2.46;100.00;100330.72;4959959;28;20938;-73
2024/03/08 07:16:52;;;;;;;44.97;23.92;;;;;;;2.66;100.00;100331.28;4944353;28;20050;-73
2024/03/08 07:19:22;;;;;;;44.45;23.95;;;;;;;2.79;100.00;100326.72;4968707;28;20504;-72
2024/03/08 07:21:52;;;;;;;42.63;22.97;;;;;;;2.98;100.00;100325.53;4964978;28;20043;-73
2024/03/08 07:24:38;;;;;;;39.13;23.23;;;;;;;3.11;100.00;100311.34;4949792;28;20057;-74
2024/03/08 07:27:06;;;;;;;39.50;23.27;;;;;;;3.27;100.00;100308.44;4981424;28;20172;-74
2024/03/08 07:29:35;;;;;;;39.03;22.65;;;;;;;3.41;100.00;100309.91;4967758;28;20051;-73
2024/03/08 07:32:18;;;;;;;40.10;23.65;;;;;;;3.52;100.00;100305.31;4985134;28;20051;-73
2024/03/08 07:34:45;;;;;;;42.60;23.13;;;;;;;3.71;100.00;100307.56;4966510;28;20188;-73
2024/03/08 07:37:20;;;;;;;39.10;23.20;;;;;;;3.84;100.00;100309.03;4982863;28;20038;-75
2024/03/08 07:39:48;;;;;;;40.63;23.08;;;;;;;4.03;100.00;100302.53;4952607;28;20062;-74
2024/03/08 07:42:16;;;;;;;41.90;24.40;;;;;;;4.20;100.00;100292.53;4967161;28;20043;-74
2024/03/08 07:44:48;;;;;;;41.47;24.27;;;;;;;4.44;100.00;100300.72;4962050;28;20054;-74
2024/03/08 07:47:18;;;;;;;36.50;21.50;;;;;;;4.69;100.00;100301.00;4997234;28;20098;-74
2024/03/08 07:49:49;;;;;;;42.05;23.95;;;;;;;4.92;100.00;100294.25;4979171;28;20110;-76
2024/03/08 07:52:20;;;;;;;38.92;23.10;;;;;;;4.99;100.00;100283.63;4981619;28;20051;-72
2024/03/08 07:54:50;;;;;;;37.58;22.58;;;;;;;5.12;100.00;100287.66;4962310;28;20124;-73
2024/03/08 07:57:18;;;;;;;35.38;21.70;;;;;;;5.29;100.00;100285.44;4987945;28;20035;-74
2024/03/08 07:59:46;;;;;;;36.75;22.20;;;;;;;5.42;100.00;100276.31;4955119;28;20056;-73
2024/03/08 08:02:15;;;;;;;34.50;21.45;;;;;;;5.68;100.00;100286.06;4965657;28;20058;-74
2024/03/08 08:04:44;;;;;;;34.95;21.65;;;;;;;5.93;97.41;100281.00;4956648;28;20047;-73
2024/03/08 08:07:14;;;;;;;36.25;21.55;;;;;;;5.99;94.64;100288.69;4964127;28;20043;-73
2024/03/08 08:09:43;;;;;;;36.70;21.25;;;;;;;5.95;92.47;100284.47;4967782;28;20046;-73
2024/03/08 08:12:12;;;;;;;34.35;21.50;;;;;;;5.82;92.52;100280.44;4952412;28;20043;-74
2024/03/08 08:14:41;;;;;;;34.88;21.83;;;;;;;5.78;96.52;100278.81;4945903;28;20055;-74
2024/03/08 08:17:12;;;;;;;35.50;22.27;;;;;;;5.89;96.70;100266.22;4966293;28;20047;-74
2024/03/08 08:19:43;;;;;;;35.13;22.23;;;;;;;6.00;95.07;100274.66;4946677;28;20049;-73
2024/03/08 08:22:13;;;;;;;32.83;21.30;;;;;;;6.13;92.88;100267.28;4945984;28;20043;-76
2024/03/08 08:24:41;;;;;;;33.80;21.92;;;;;;;6.23;90.77;100266.94;4944375;28;20051;-73
2024/03/08 08:27:11;;;;;;;36.25;23.25;;;;;;;6.21;92.04;100254.72;4952850;28;20062;-73
2024/03/08 08:29:39;;;;;;;;;;;;;;;6.38;88.77;100264.72;4947835;28;20098;-73
2024/03/08 08:32:07;;;;;;;34.78;20.65;;;;;;;6.45;89.02;100256.59;4973283;28;19923;-73
2024/03/08 08:34:36;;;;;;;34.10;21.02;;;;;;;6.70;87.14;100248.75;4982376;28;20059;-74
2024/03/08 08:37:06;;;;;;;36.40;21.38;;;;;;;6.72;83.34;100243.44;4962470;28;20142;-74
2024/03/08 08:39:34;;;;;;;32.25;21.30;;;;;;;6.63;83.79;100240.19;4985473;28;20071;-72
2024/03/08 08:42:03;;;;;;;30.65;20.30;;;;;;;6.49;85.13;100241.56;4967933;28;20144;-73
2024/03/08 08:44:34;;;;;;;34.13;21.60;;;;;;;6.44;84.59;100241.72;4974089;28;20046;-73
2024/03/08 08:47:04;;;;;;;31.95;20.60;;;;;;;6.26;85.62;100243.16;4950756;28;20622;-71
2024/03/08 08:49:42;;;;;;;32.53;20.48;;;;;;;6.07;88.65;100222.75;4968623;28;20051;-70
2024/03/08 08:52:13;;;;;;;35.80;22.10;;;;;;;6.10;91.66;100227.94;4974166;28;20411;-72
2024/03/08 08:54:45;;;;;;;34.97;21.38;;;;;;;6.11;91.67;100221.75;4959764;28;20129;-72
2024/03/08 08:57:17;;;;;;;34.67;21.45;;;;;;;6.12;91.70;100215.59;4967697;28;20042;-72
2024/03/08 08:59:49;;;;;;;33.40;21.27;;;;;;;6.21;91.58;100215.28;4985668;28;20106;-72
2024/03/08 09:02:20;;;;;;;31.63;20.05;;;;;;;6.19;89.16;100199.56;4951087;28;20042;-72
2024/03/08 09:04:50;;;;;;;35.05;20.77;;;;;;;6.21;89.47;100207.41;4967971;28;20410;-73
2024/03/08 09:07:20;;;;;;;32.97;21.17;;;;;;;6.17;89.80;100208.41;4979601;28;20058;-73
2024/03/08 09:09:48;;;;;;;30.92;20.33;;;;;;;6.14;89.62;100195.38;4969086;28;20130;-73
2024/03/08 09:12:17;;;;;;;35.25;22.00;;;;;;;6.14;90.92;100184.88;4952973;28;20531;-72
2024/03/08 09:14:47;;;;;;;33.63;21.30;;;;;;;6.31;88.87;100198.28;4963082;28;20498;-71
2024/03/08 09:17:20;;;;;;;32.60;20.33;;;;;;;6.42;88.03;100195.34;4965878;28;20058;-73
2024/03/08 09:19:48;;;;;;;31.52;20.08;;;;;;;6.41;86.48;100178.69;4982114;28;20054;-73
2024/03/08 09:22:16;;;;;;;33.25;20.27;;;;;;;6.48;85.99;100176.69;4948167;28;20054;-72
2024/03/08 09:24:44;;;;;;;33.45;20.25;;;;;;;6.61;85.36;100181.50;4982688;28;20053;-73
2024/03/08 09:27:12;;;;;;;30.42;19.13;;;;;;;6.67;83.66;100170.78;4951477;28;20035;-72
2024/03/08 09:29:44;;;;;;;30.95;19.65;;;;;;;6.81;83.53;100177.31;4968629;28;20053;-73
2024/03/08 09:32:15;;;;;;;32.83;20.20;;;;;;;6.95;81.16;100181.19;4968085;28;20688;-73
2024/03/08 09:34:45;;;;;;;29.67;18.40;;;;;;;6.99;78.31;100171.41;4950335;28;20051;-73
2024/03/08 09:37:13;;;;;;;28.75;18.13;;;;;;;7.12;76.52;100162.16;4966322;28;20055;-71
2024/03/08 09:39:43;;;;;;;27.42;17.15;;;;;;;7.24;76.13;100153.78;4943954;28;20047;-73
2024/03/08 09:42:14;;;;;;;28.08;17.73;;;;;;;7.34;74.54;100144.66;4988815;28;20057;-73
2024/03/08 09:44:48;;;;;;;25.35;16.83;;;;;;;7.36;73.08;100134.91;4974581;28;20073;-72
2024/03/08 09:47:19;;;;;;;26.75;16.27;;;;;;;7.54;75.46;100137.75;4985300;28;20110;-71
2024/03/08 09:49:48;;;;;;;27.63;16.25;;;;;;;7.55;71.50;100128.94;4959493;28;20122;-80
2024/03/08 09:52:17;;;;;;;26.30;16.42;;;;;;;7.67;71.15;100133.72;5009270;28;20076;-76
2024/03/08 09:54:44;;;;;;;26.23;16.38;;;;;;;7.68;68.12;100127.53;4992014;28;20063;-73
2024/03/08 09:57:13;;;;;;;25.60;17.05;;;;;;;7.74;68.55;100122.00;5003152;28;20039;-71
2024/03/08 09:59:48;;;;;;;26.60;15.77;;;;;;;7.83;67.95;100112.91;4999654;28;20067;-74
2024/03/08 10:02:20;;;;;;;25.42;16.42;;;;;;;7.61;66.17;100065.44;4989924;28;20051;-73
2024/03/08 10:04:49;;;;;;;25.73;16.95;;;;;;;7.85;66.69;100114.56;4981348;28;20051;-72
2024/03/08 10:07:17;;;;;;;24.63;15.80;;;;;;;7.92;65.45;100113.38;4978749;28;20748;-73
2024/03/08 10:09:50;;;;;;;25.00;16.80;;;;;;;7.96;65.62;100103.56;4985602;28;20503;-71
2024/03/08 10:12:20;;;;;;;26.05;15.85;;;;;;;7.99;65.24;100106.09;4968330;28;20494;-73
2024/03/08 10:14:48;;;;;;;24.23;15.80;;;;;;;8.12;64.63;100101.16;4983794;28;20525;-72
2024/03/08 10:17:18;;;;;;;25.83;15.77;;;;;;;8.25;64.25;100095.28;4960815;28;20051;-71
2024/03/08 10:19:51;;;;;;;23.60;15.60;;;;;;;8.41;63.17;100077.06;4970187;28;20142;-71
2024/03/08 10:22:20;;;;;;;26.88;15.95;;;;;;;8.56;61.63;100092.22;4969060;28;20047;-73
2024/03/08 10:24:48;;;;;;;25.40;16.40;;;;;;;8.67;62.10;100082.06;4981639;28;20049;-73
2024/03/08 10:27:17;;;;;;;24.13;15.10;;;;;;;8.83;60.83;100084.00;4964447;28;20041;-72
2024/03/08 10:29:48;;;;;;;22.70;15.57;;;;;;;8.98;60.57;100086.81;4975353;28;20048;-72
2024/03/08 10:32:18;;;;;;;26.90;16.67;;;;;;;8.90;58.83;100073.13;4953189;28;20070;-72
2024/03/08 10:34:46;;;;;;;23.92;15.50;;;;;;;8.87;59.54;100075.03;4967544;28;20065;-74
2024/03/08 10:37:22;;;;;;;23.92;15.70;;;;;;;8.81;59.03;100073.56;4975937;28;20069;-72
2024/03/08 10:40:10;;;;;;;25.13;15.77;;;;;;;8.69;59.31;100072.28;4984181;28;20121;-72
2024/03/08 10:42:42;;;;;;;24.05;15.30;;;;;;;8.79;58.91;100054.28;4962949;28;20841;-73
2024/03/08 10:45:16;;;;;;;27.55;16.08;;;;;;;8.85;57.99;100058.41;4963554;28;20055;-73
2024/03/08 10:47:49;;;;;;;24.40;15.18;;;;;;;8.91;58.31;100053.72;4961719;28;20621;-71
2024/03/08 10:50:21;;;;;;;24.73;15.98;;;;;;;8.96;58.21;100045.59;4984781;28;20504;-72
2024/03/08 10:52:55;;;;;;;24.42;15.63;;;;;;;8.96;59.70;100037.66;4950177;28;20047;-71
2024/03/08 10:55:26;;;;;;;21.95;15.15;;;;;;;9.04;57.87;100038.16;4963216;28;20057;-73
2024/03/08 10:57:54;;;;;;;;;;;;;;;9.08;57.88;100047.66;4983655;28;20107;-73
2024/03/08 11:00:26;;;;;;;22.40;14.40;;;;;;;9.07;57.10;100032.75;4984187;28;20453;-73
2024/03/08 11:02:57;;;;;;;22.92;15.13;;;;;;;9.21;57.08;100045.28;4984485;28;20057;-72
2024/03/08 11:05:39;;;;;;;20.98;13.88;;;;;;;9.29;56.09;100019.34;5004997;28;20055;-73
2024/03/08 12:35:58;;;;;;;27.90;16.15;;;;;;;10.52;51.35;99902.84;5009203;27;2003703;-78
2024/03/08 12:38:31;;;;;;;20.67;14.88;;;;;;;10.59;51.07;99900.72;5042401;28;20111;-78
2024/03/08 12:41:04;;;;;;;22.55;14.82;;;;;;;10.67;50.80;99900.31;5044715;28;20052;-79
2024/03/08 12:43:33;;;;;;;24.02;14.80;;;;;;;10.40;50.68;99869.09;5044839;28;20034;-80
2024/03/08 12:46:04;;;;;;;23.63;14.93;;;;;;;10.29;51.36;99841.50;5043688;28;20095;-80
2024/03/08 12:48:47;;;;;;;25.67;14.98;;;;;;;10.51;51.07;99890.56;5062532;28;20563;-79
2024/03/08 12:51:21;;;;;;;21.55;14.32;;;;;;;10.58;51.29;99885.75;5042136;28;20060;-78
2024/03/08 12:53:55;;;;;;;23.83;15.48;;;;;;;10.60;51.71;99868.00;5052868;28;20334;-79